Katrina — V2DW3 — position and weather

sailwx.info

Track history (hours):
 
Tides and Currents Weather Stations Pressure Air Temp Water Temp Dewpoint Dewpoint Depression Visibility Wind Speed Wind Dir Waves Ship Positions

Katrina

Last reported at 2018-Apr-20 01:10 UTC. Time now 2018-Jun-24 14:24 UTC.
Position N 36°06' E 120°15'.
Warning: this ship's position is months out of date.

Length 132 m; draft 6.8 m.

Type: Cargo ship. MMSI: 305354000.

Date/timePositionNaut miles runAvg speedWind from/ knotsBaromVisibWave heightAir tempDewpointWater temp
2018-Apr-20 01:10N 36°06' E 120°15'0 0.3
2018-Apr-20 00:58N 36°06' E 120°15'0 0.0
2018-Apr-20 00:27N 36°06' E 120°15'0 0.0
2018-Apr-19 23:00N 36°06' E 120°15'0 0.0
2018-Apr-19 22:30N 36°06' E 120°15'0 0.0
2018-Apr-19 21:54N 36°06' E 120°15'0 0.0
2018-Apr-19 21:24N 36°06' E 120°15'0 0.0
2018-Apr-19 20:38N 36°06' E 120°15'0 0.0
2018-Apr-19 19:41N 36°06' E 120°15'0 0.1
2018-Apr-19 19:26N 36°06' E 120°15'0 0.0
2018-Apr-19 18:44N 36°06' E 120°15'0 0.0
2018-Apr-19 18:23N 36°06' E 120°15'0 0.1
2018-Apr-19 17:46N 36°06' E 120°15'0 0.1
2018-Apr-19 16:16N 36°06' E 120°15'0 0.0
2018-Apr-19 15:10N 36°06' E 120°15'0 0.1
2018-Apr-19 14:38N 36°06' E 120°15'1 3.2
2018-Apr-19 14:28N 36°05' E 120°15'6 8.9
2018-Apr-19 13:46N 35°60' E 120°12'0 0.0
2018-Apr-19 13:17N 35°60' E 120°12'0 0.0
2018-Apr-19 12:59N 35°60' E 120°12'0 0.0
2018-Apr-19 11:56N 35°60' E 120°12'0 0.0
2018-Apr-19 11:26N 35°60' E 120°12'0 0.0
2018-Apr-19 10:53N 35°60' E 120°12'0 0.0
2018-Apr-19 10:23N 35°60' E 120°12'0 0.0
2018-Apr-19 09:47N 35°60' E 120°12'0 0.0
2018-Apr-19 08:28N 35°60' E 120°12'0 0.0
2018-Apr-19 07:31N 35°60' E 120°12'0 0.0
2018-Apr-19 07:20N 35°60' E 120°12'0 0.0
2018-Apr-19 06:56N 35°60' E 120°12'3 5.7
2018-Apr-19 06:26N 36°02' E 120°14'611.7
2018-Apr-19 05:56N 36°01' E 120°22'613.7
2018-Apr-19 05:29N 36°00' E 120°29'  
2018-Apr-16 13:30N 34°02' E 129°59'714.1
2018-Apr-16 12:58N 34°01' E 130°08'714.3
2018-Apr-16 12:30N 34°01' E 130°15'714.5
2018-Apr-16 12:00N 34°01' E 130°24'714.4
2018-Apr-16 11:30N 34°02' E 130°33'714.3
2018-Apr-16 11:00N 34°02' E 130°42'714.0
2018-Apr-16 10:30N 34°02' E 130°50'611.8
2018-Apr-16 10:00N 33°56' E 130°53'5 9.0
2018-Apr-16 09:30N 33°58' E 130°58'611.5
2018-Apr-16 09:00N 33°56' E 131°04'714.5
2018-Apr-16 08:31N 33°52' E 131°12'714.7
2018-Apr-16 08:01N 33°51' E 131°20'714.5
2018-Apr-16 07:30N 33°49' E 131°29'814.4
2018-Apr-16 06:59N 33°47' E 131°38'713.9
2018-Apr-16 06:30N 33°46' E 131°45'713.9
2018-Apr-16 06:01N 33°44' E 131°53'814.4
2018-Apr-16 05:26N 33°43' E 132°03'614.3
2018-Apr-16 04:59N 33°42' E 132°11'715.3
2018-Apr-16 04:30N 33°45' E 132°19'915.4
2018-Apr-16 03:56N 33°48' E 132°29'715.3
2018-Apr-16 03:30N 33°53' E 132°35'714.8
2018-Apr-16 03:00N 33°57' E 132°42'7413.0
2018-Apr-15 21:16N 34°27' E 134°04'415.0
2018-Apr-15 20:59N 34°26' E 134°09'714.2
2018-Apr-15 20:30N 34°24' E 134°17'713.6
2018-Apr-15 20:01N 34°26' E 134°25'714.0
2018-Apr-15 19:30N 34°29' E 134°33'714.0
2018-Apr-15 19:01N 34°31' E 134°41'713.4
2018-Apr-15 18:31N 34°34' E 134°49'612.1
2018-Apr-15 18:00N 34°36' E 134°55'510.3
2018-Apr-15 17:30N 34°37' E 135°02'510.3
2018-Apr-15 17:00N 34°36' E 135°08'713.7
2018-Apr-15 16:30N 34°36' E 135°16'612.6
2018-Apr-15 16:00N 34°38' E 135°23'3 5.1
2018-Apr-15 15:28N 34°38' E 135°26'0 0.0
2018-Apr-15 14:55N 34°38' E 135°26'0 0.0
2018-Apr-15 14:28N 34°38' E 135°26'0 0.0
2018-Apr-15 13:58N 34°38' E 135°26'0 0.0
2018-Apr-15 13:28N 34°38' E 135°26'0 0.0
2018-Apr-15 12:58N 34°38' E 135°26'0 0.0
2018-Apr-15 12:28N 34°38' E 135°26'0 0.0
2018-Apr-15 11:58N 34°38' E 135°26'0 0.0
2018-Apr-15 11:25N 34°38' E 135°26'0 0.0
2018-Apr-15 10:58N 34°38' E 135°26'0 0.0
2018-Apr-15 10:31N 34°38' E 135°26'0 0.3
2018-Apr-15 10:00N 34°38' E 135°26'4 7.7
2018-Apr-15 09:30N 34°37' E 135°22'5 9.6
2018-Apr-15 09:01N 34°39' E 135°16'2 4.2
2018-Apr-15 08:30N 34°40' E 135°14'0 0.0
2018-Apr-15 07:57N 34°40' E 135°14'0 0.0
2018-Apr-15 07:30N 34°40' E 135°14'0 0.0
2018-Apr-15 06:57N 34°40' E 135°14'0 0.0
2018-Apr-15 06:30N 34°40' E 135°14'0 0.0
2018-Apr-15 05:57N 34°40' E 135°14'0 0.0
2018-Apr-15 05:30N 34°40' E 135°14'0 0.0
2018-Apr-15 05:00N 34°40' E 135°14'0 0.7
2018-Apr-15 04:30N 34°40' E 135°14'510.6
2018-Apr-15 04:00N 34°36' E 135°18'510.8
2018-Apr-15 03:30N 34°32' E 135°24'1 1.6
2018-Apr-15 03:00N 34°32' E 135°24'0 0.0
2018-Apr-15 02:30N 34°32' E 135°24'0 0.0
2018-Apr-15 02:00N 34°32' E 135°24'0 0.0
2018-Apr-15 01:30N 34°32' E 135°24'0 0.0
2018-Apr-15 01:00N 34°32' E 135°24'0 0.0
2018-Apr-15 00:30N 34°32' E 135°24'0 0.0
2018-Apr-14 23:59N 34°32' E 135°24'0 0.0
2018-Apr-14 23:29N 34°32' E 135°24'0 0.0
2018-Apr-14 22:56N 34°32' E 135°24'0 0.0
2018-Apr-14 22:29N 34°32' E 135°24'0 0.8
2018-Apr-14 22:00N 34°32' E 135°24'5 9.6
2018-Apr-14 21:30N 34°34' E 135°18'611.1
2018-Apr-14 21:00N 34°34' E 135°12'611.7
2018-Apr-14 20:30N 34°35' E 135°05'510.7
2018-Apr-14 20:00N 34°37' E 134°59'611.8
2018-Apr-14 19:30N 34°34' E 134°52'611.7
2018-Apr-14 19:00N 34°32' E 134°46'611.6
2018-Apr-14 18:30N 34°30' E 134°39'611.8
2018-Apr-14 18:00N 34°28' E 134°32'611.7
2018-Apr-14 17:30N 34°25' E 134°26'611.3
2018-Apr-14 16:59N 34°24' E 134°19'3111.6
2018-Apr-14 14:17N 34°18' E 133°42'3711.1
2018-Apr-14 10:57N 34°09' E 132°58'1311.6
2018-Apr-14 09:51N 34°01' E 132°46'412.5
2018-Apr-14 09:30N 33°57' E 132°43'612.7
2018-Apr-14 09:00N 33°54' E 132°37'612.5
2018-Apr-14 08:30N 33°49' E 132°32'712.4
2018-Apr-14 07:57N 33°46' E 132°24'611.9
2018-Apr-14 07:26N 33°44' E 132°18'1811.9
2018-Apr-14 05:56N 33°43' E 131°56'512.4
2018-Apr-14 05:30N 33°44' E 131°50'611.9
2018-Apr-14 05:00N 33°46' E 131°43'611.5
2018-Apr-14 04:30N 33°47' E 131°36'611.9
2018-Apr-14 04:00N 33°48' E 131°29'612.3
2018-Apr-14 03:30N 33°49' E 131°22'612.2
2018-Apr-14 03:00N 33°51' E 131°15'612.0
2018-Apr-14 02:30N 33°53' E 131°08'612.3
2018-Apr-14 02:00N 33°57' E 131°02'5 9.3
2018-Apr-14 01:30N 33°57' E 130°57'3 7.0
2018-Apr-14 01:00N 33°55' E 130°53'510.2
2018-Apr-14 00:30N 33°60' E 130°52'611.5
2018-Apr-14 00:00N 34°02' E 130°46'612.1
2018-Apr-13 23:30N 34°02' E 130°39'612.1
2018-Apr-13 23:00N 34°02' E 130°31'612.3
2018-Apr-13 22:30N 34°02' E 130°24'612.2
2018-Apr-13 22:00N 34°02' E 130°16'612.0
2018-Apr-13 21:30N 34°01' E 130°09'612.3
2018-Apr-13 21:00N 34°01' E 130°02'612.1
2018-Apr-13 20:29N 34°01' E 129°54'612.3
2018-Apr-13 20:00N 34°01' E 129°47'712.2
2018-Apr-13 19:27N 34°01' E 129°39'612.3
2018-Apr-13 19:00N 34°01' E 129°32'612.3
2018-Apr-13 18:30N 34°01' E 129°25'712.6
2018-Apr-13 17:59N 34°01' E 129°17'2411.6
2018-Apr-13 15:53N 33°60' E 128°48'42613.4
2018-Apr-12 08:12N 35°59' E 120°29'414.4
2018-Apr-12 07:57N 36°00' E 120°24'612.0
2018-Apr-12 07:27N 36°02' E 120°17'5 9.4
2018-Apr-12 06:56N 35°60' E 120°12'0 0.2
2018-Apr-12 06:24N 35°60' E 120°12'0 0.0
2018-Apr-12 05:50N 35°60' E 120°12'0 0.0
2018-Apr-12 05:14N 35°60' E 120°12'0 0.0
2018-Apr-12 04:59N 35°60' E 120°12'0 0.0
2018-Apr-12 04:26N 35°60' E 120°12'0 0.0
2018-Apr-12 03:53N 35°60' E 120°12'0 0.0
2018-Apr-12 03:20N 35°60' E 120°12'0 0.0
2018-Apr-12 02:47N 35°60' E 120°12'0 0.0
2018-Apr-12 02:28N 35°60' E 120°12'0 0.1
2018-Apr-12 01:58N 35°60' E 120°12'0 0.1
2018-Apr-12 01:21N 35°60' E 120°12'0 0.0
2018-Apr-12 00:33N 35°60' E 120°12'0 0.0
2018-Apr-12 00:18N 35°60' E 120°12'0 0.0
2018-Apr-11 23:42N 35°60' E 120°12'0 0.0
2018-Apr-11 23:27N 35°60' E 120°12'0 0.0
2018-Apr-11 22:54N 35°60' E 120°12'0 0.0
2018-Apr-11 21:42N 35°60' E 120°12'0 0.0
2018-Apr-11 21:26N 35°60' E 120°12'0 0.0
2018-Apr-11 20:35N 35°60' E 120°12'0 0.0
2018-Apr-11 20:14N 35°60' E 120°12'0 0.0
2018-Apr-11 19:59N 35°60' E 120°12'0 0.0
2018-Apr-11 19:20N 35°60' E 120°12'0 0.0
2018-Apr-11 18:50N 35°60' E 120°12'0 0.0
2018-Apr-11 18:29N 35°60' E 120°12'0 0.0
2018-Apr-11 17:53N 35°60' E 120°12'0 0.0
2018-Apr-11 17:23N 35°60' E 120°12'2 1.5
2018-Apr-11 16:10N 36°01' E 120°13'3 6.8
2018-Apr-11 15:46N 36°02' E 120°17'310.9
2018-Apr-11 15:28N 36°01' E 120°21'711.1
2018-Apr-11 14:49N 36°00' E 120°29'48013.2
2018-Apr-10 02:29N 34°02' E 129°57'714.1
2018-Apr-10 02:00N 34°02' E 130°05'714.3
2018-Apr-10 01:30N 34°02' E 130°14'  
Track history (hours):
 
Tides and Currents Weather Stations Pressure Air Temp Water Temp Dewpoint Dewpoint Depression Visibility Wind Speed Wind Dir Waves Ship Positions

Katrina

Last reported at 2018-Apr-20 01:10 UTC. Time now 2018-Jun-24 14:24 UTC.
Position N 36°06' E 120°15'.
Warning: this ship's position is months out of date.

Length 132 m; draft 6.8 m.

Type: Cargo ship. MMSI: 305354000.

Date/timePositionNaut miles runAvg speedWind from/ knotsBaromVisibWave heightAir tempDewpointWater temp
2018-Apr-20 01:10N 36°06' E 120°15'0 0.3
2018-Apr-20 00:58N 36°06' E 120°15'0 0.0
2018-Apr-20 00:27N 36°06' E 120°15'0 0.0
2018-Apr-19 23:00N 36°06' E 120°15'0 0.0
2018-Apr-19 22:30N 36°06' E 120°15'0 0.0
2018-Apr-19 21:54N 36°06' E 120°15'0 0.0
2018-Apr-19 21:24N 36°06' E 120°15'0 0.0
2018-Apr-19 20:38N 36°06' E 120°15'0 0.0
2018-Apr-19 19:41N 36°06' E 120°15'0 0.1
2018-Apr-19 19:26N 36°06' E 120°15'0 0.0
2018-Apr-19 18:44N 36°06' E 120°15'0 0.0
2018-Apr-19 18:23N 36°06' E 120°15'0 0.1
2018-Apr-19 17:46N 36°06' E 120°15'0 0.1
2018-Apr-19 16:16N 36°06' E 120°15'0 0.0
2018-Apr-19 15:10N 36°06' E 120°15'0 0.1
2018-Apr-19 14:38N 36°06' E 120°15'1 3.2
2018-Apr-19 14:28N 36°05' E 120°15'6 8.9
2018-Apr-19 13:46N 35°60' E 120°12'0 0.0
2018-Apr-19 13:17N 35°60' E 120°12'0 0.0
2018-Apr-19 12:59N 35°60' E 120°12'0 0.0
2018-Apr-19 11:56N 35°60' E 120°12'0 0.0
2018-Apr-19 11:26N 35°60' E 120°12'0 0.0
2018-Apr-19 10:53N 35°60' E 120°12'0 0.0
2018-Apr-19 10:23N 35°60' E 120°12'0 0.0
2018-Apr-19 09:47N 35°60' E 120°12'0 0.0
2018-Apr-19 08:28N 35°60' E 120°12'0 0.0
2018-Apr-19 07:31N 35°60' E 120°12'0 0.0
2018-Apr-19 07:20N 35°60' E 120°12'0 0.0
2018-Apr-19 06:56N 35°60' E 120°12'3 5.7
2018-Apr-19 06:26N 36°02' E 120°14'611.7
2018-Apr-19 05:56N 36°01' E 120°22'613.7
2018-Apr-19 05:29N 36°00' E 120°29'  
2018-Apr-16 13:30N 34°02' E 129°59'714.1
2018-Apr-16 12:58N 34°01' E 130°08'714.3
2018-Apr-16 12:30N 34°01' E 130°15'714.5
2018-Apr-16 12:00N 34°01' E 130°24'714.4
2018-Apr-16 11:30N 34°02' E 130°33'714.3
2018-Apr-16 11:00N 34°02' E 130°42'714.0
2018-Apr-16 10:30N 34°02' E 130°50'611.8
2018-Apr-16 10:00N 33°56' E 130°53'5 9.0
2018-Apr-16 09:30N 33°58' E 130°58'611.5
2018-Apr-16 09:00N 33°56' E 131°04'714.5
2018-Apr-16 08:31N 33°52' E 131°12'714.7
2018-Apr-16 08:01N 33°51' E 131°20'714.5
2018-Apr-16 07:30N 33°49' E 131°29'814.4
2018-Apr-16 06:59N 33°47' E 131°38'713.9
2018-Apr-16 06:30N 33°46' E 131°45'713.9
2018-Apr-16 06:01N 33°44' E 131°53'814.4
2018-Apr-16 05:26N 33°43' E 132°03'614.3
2018-Apr-16 04:59N 33°42' E 132°11'715.3
2018-Apr-16 04:30N 33°45' E 132°19'915.4
2018-Apr-16 03:56N 33°48' E 132°29'715.3
2018-Apr-16 03:30N 33°53' E 132°35'714.8
2018-Apr-16 03:00N 33°57' E 132°42'7413.0
2018-Apr-15 21:16N 34°27' E 134°04'415.0
2018-Apr-15 20:59N 34°26' E 134°09'714.2
2018-Apr-15 20:30N 34°24' E 134°17'713.6
2018-Apr-15 20:01N 34°26' E 134°25'714.0
2018-Apr-15 19:30N 34°29' E 134°33'714.0
2018-Apr-15 19:01N 34°31' E 134°41'713.4
2018-Apr-15 18:31N 34°34' E 134°49'612.1
2018-Apr-15 18:00N 34°36' E 134°55'510.3
2018-Apr-15 17:30N 34°37' E 135°02'510.3
2018-Apr-15 17:00N 34°36' E 135°08'713.7
2018-Apr-15 16:30N 34°36' E 135°16'612.6
2018-Apr-15 16:00N 34°38' E 135°23'3 5.1
2018-Apr-15 15:28N 34°38' E 135°26'0 0.0
2018-Apr-15 14:55N 34°38' E 135°26'0 0.0
2018-Apr-15 14:28N 34°38' E 135°26'0 0.0
2018-Apr-15 13:58N 34°38' E 135°26'0 0.0
2018-Apr-15 13:28N 34°38' E 135°26'0 0.0
2018-Apr-15 12:58N 34°38' E 135°26'0 0.0
2018-Apr-15 12:28N 34°38' E 135°26'0 0.0
2018-Apr-15 11:58N 34°38' E 135°26'0 0.0
2018-Apr-15 11:25N 34°38' E 135°26'0 0.0
2018-Apr-15 10:58N 34°38' E 135°26'0 0.0
2018-Apr-15 10:31N 34°38' E 135°26'0 0.3
2018-Apr-15 10:00N 34°38' E 135°26'4 7.7
2018-Apr-15 09:30N 34°37' E 135°22'5 9.6
2018-Apr-15 09:01N 34°39' E 135°16'2 4.2
2018-Apr-15 08:30N 34°40' E 135°14'0 0.0
2018-Apr-15 07:57N 34°40' E 135°14'0 0.0
2018-Apr-15 07:30N 34°40' E 135°14'0 0.0
2018-Apr-15 06:57N 34°40' E 135°14'0 0.0
2018-Apr-15 06:30N 34°40' E 135°14'0 0.0
2018-Apr-15 05:57N 34°40' E 135°14'0 0.0
2018-Apr-15 05:30N 34°40' E 135°14'0 0.0
2018-Apr-15 05:00N 34°40' E 135°14'0 0.7
2018-Apr-15 04:30N 34°40' E 135°14'510.6
2018-Apr-15 04:00N 34°36' E 135°18'510.8
2018-Apr-15 03:30N 34°32' E 135°24'1 1.6
2018-Apr-15 03:00N 34°32' E 135°24'0 0.0
2018-Apr-15 02:30N 34°32' E 135°24'0 0.0
2018-Apr-15 02:00N 34°32' E 135°24'0 0.0
2018-Apr-15 01:30N 34°32' E 135°24'0 0.0
2018-Apr-15 01:00N 34°32' E 135°24'0 0.0
2018-Apr-15 00:30N 34°32' E 135°24'0 0.0
2018-Apr-14 23:59N 34°32' E 135°24'0 0.0
2018-Apr-14 23:29N 34°32' E 135°24'0 0.0
2018-Apr-14 22:56N 34°32' E 135°24'0 0.0
2018-Apr-14 22:29N 34°32' E 135°24'0 0.8
2018-Apr-14 22:00N 34°32' E 135°24'5 9.6
2018-Apr-14 21:30N 34°34' E 135°18'611.1
2018-Apr-14 21:00N 34°34' E 135°12'611.7
2018-Apr-14 20:30N 34°35' E 135°05'510.7
2018-Apr-14 20:00N 34°37' E 134°59'611.8
2018-Apr-14 19:30N 34°34' E 134°52'611.7
2018-Apr-14 19:00N 34°32' E 134°46'611.6
2018-Apr-14 18:30N 34°30' E 134°39'611.8
2018-Apr-14 18:00N 34°28' E 134°32'611.7
2018-Apr-14 17:30N 34°25' E 134°26'611.3
2018-Apr-14 16:59N 34°24' E 134°19'3111.6
2018-Apr-14 14:17N 34°18' E 133°42'3711.1
2018-Apr-14 10:57N 34°09' E 132°58'1311.6
2018-Apr-14 09:51N 34°01' E 132°46'412.5
2018-Apr-14 09:30N 33°57' E 132°43'612.7
2018-Apr-14 09:00N 33°54' E 132°37'612.5
2018-Apr-14 08:30N 33°49' E 132°32'712.4
2018-Apr-14 07:57N 33°46' E 132°24'611.9
2018-Apr-14 07:26N 33°44' E 132°18'1811.9
2018-Apr-14 05:56N 33°43' E 131°56'512.4
2018-Apr-14 05:30N 33°44' E 131°50'611.9
2018-Apr-14 05:00N 33°46' E 131°43'611.5
2018-Apr-14 04:30N 33°47' E 131°36'611.9
2018-Apr-14 04:00N 33°48' E 131°29'612.3
2018-Apr-14 03:30N 33°49' E 131°22'612.2
2018-Apr-14 03:00N 33°51' E 131°15'612.0
2018-Apr-14 02:30N 33°53' E 131°08'612.3
2018-Apr-14 02:00N 33°57' E 131°02'5 9.3
2018-Apr-14 01:30N 33°57' E 130°57'3 7.0
2018-Apr-14 01:00N 33°55' E 130°53'510.2
2018-Apr-14 00:30N 33°60' E 130°52'611.5
2018-Apr-14 00:00N 34°02' E 130°46'612.1
2018-Apr-13 23:30N 34°02' E 130°39'612.1
2018-Apr-13 23:00N 34°02' E 130°31'612.3
2018-Apr-13 22:30N 34°02' E 130°24'612.2
2018-Apr-13 22:00N 34°02' E 130°16'612.0
2018-Apr-13 21:30N 34°01' E 130°09'612.3
2018-Apr-13 21:00N 34°01' E 130°02'612.1
2018-Apr-13 20:29N 34°01' E 129°54'612.3
2018-Apr-13 20:00N 34°01' E 129°47'712.2
2018-Apr-13 19:27N 34°01' E 129°39'612.3
2018-Apr-13 19:00N 34°01' E 129°32'612.3
2018-Apr-13 18:30N 34°01' E 129°25'712.6
2018-Apr-13 17:59N 34°01' E 129°17'2411.6
2018-Apr-13 15:53N 33°60' E 128°48'42613.4
2018-Apr-12 08:12N 35°59' E 120°29'414.4
2018-Apr-12 07:57N 36°00' E 120°24'612.0
2018-Apr-12 07:27N 36°02' E 120°17'5 9.4
2018-Apr-12 06:56N 35°60' E 120°12'0 0.2
2018-Apr-12 06:24N 35°60' E 120°12'0 0.0
2018-Apr-12 05:50N 35°60' E 120°12'0 0.0
2018-Apr-12 05:14N 35°60' E 120°12'0 0.0
2018-Apr-12 04:59N 35°60' E 120°12'0 0.0
2018-Apr-12 04:26N 35°60' E 120°12'0 0.0
2018-Apr-12 03:53N 35°60' E 120°12'0 0.0
2018-Apr-12 03:20N 35°60' E 120°12'0 0.0
2018-Apr-12 02:47N 35°60' E 120°12'0 0.0
2018-Apr-12 02:28N 35°60' E 120°12'0 0.1
2018-Apr-12 01:58N 35°60' E 120°12'0 0.1
2018-Apr-12 01:21N 35°60' E 120°12'0 0.0
2018-Apr-12 00:33N 35°60' E 120°12'0 0.0
2018-Apr-12 00:18N 35°60' E 120°12'0 0.0
2018-Apr-11 23:42N 35°60' E 120°12'0 0.0
2018-Apr-11 23:27N 35°60' E 120°12'0 0.0
2018-Apr-11 22:54N 35°60' E 120°12'0 0.0
2018-Apr-11 21:42N 35°60' E 120°12'0 0.0
2018-Apr-11 21:26N 35°60' E 120°12'0 0.0
2018-Apr-11 20:35N 35°60' E 120°12'0 0.0
2018-Apr-11 20:14N 35°60' E 120°12'0 0.0
2018-Apr-11 19:59N 35°60' E 120°12'0 0.0
2018-Apr-11 19:20N 35°60' E 120°12'0 0.0
2018-Apr-11 18:50N 35°60' E 120°12'0 0.0
2018-Apr-11 18:29N 35°60' E 120°12'0 0.0
2018-Apr-11 17:53N 35°60' E 120°12'0 0.0
2018-Apr-11 17:23N 35°60' E 120°12'2 1.5
2018-Apr-11 16:10N 36°01' E 120°13'3 6.8
2018-Apr-11 15:46N 36°02' E 120°17'310.9
2018-Apr-11 15:28N 36°01' E 120°21'711.1
2018-Apr-11 14:49N 36°00' E 120°29'48013.2
2018-Apr-10 02:29N 34°02' E 129°57'714.1
2018-Apr-10 02:00N 34°02' E 130°05'714.3
2018-Apr-10 01:30N 34°02' E 130°14'  

Dump ship's entire track history